Time,TemperatureF,DewpointF,PressureIn,WindDirection,WindDirectionDegrees,WindSpeedMPH,WindSpeedGustMPH,Humidity,HourlyPrecipIn,Conditions,Clouds,dailyrainin,SoftwareType,DateUTC
2013-03-29 00:02:00,45.0,24.0,-100.00,SSE,168,18.0,23.0,44,0.00,,,-99.99,,2013-03-29 00:02:00,
2013-03-29 00:12:00,45.0,22.0,-100.00,SSE,161,17.0,22.0,39,0.00,,,-99.99,,2013-03-29 00:12:00,
2013-03-29 00:22:00,44.0,26.0,-100.00,SSE,162,11.0,22.0,50,0.00,,,-99.99,,2013-03-29 00:22:00,
2013-03-29 00:32:00,44.0,25.0,-100.00,SSE,162,8.0,11.0,46,0.00,,,-99.99,,2013-03-29 00:32:00,
2013-03-29 00:42:00,47.0,24.0,-100.00,South,178,6.0,11.0,39,0.00,,,-99.99,,2013-03-29 00:42:00,
2013-03-29 00:52:00,47.0,26.0,-100.00,South,174,9.0,13.0,44,0.00,,,-99.99,,2013-03-29 00:52:00,
2013-03-29 01:02:00,45.0,25.0,-100.00,South,169,8.0,10.0,46,0.00,,,-99.99,,2013-03-29 01:02:00,
2013-03-29 01:12:00,44.0,25.0,-100.00,South,171,8.0,10.0,47,0.00,,,-99.99,,2013-03-29 01:12:00,
2013-03-29 01:22:00,42.0,26.0,-100.00,South,185,4.0,6.0,52,0.00,,,-99.99,,2013-03-29 01:22:00,
2013-03-29 01:32:00,42.0,26.0,-100.00,SSE,167,3.0,7.0,53,0.00,,,-99.99,,2013-03-29 01:32:00,
2013-03-29 01:42:00,42.0,24.0,-100.00,ESE,123,3.0,6.0,50,0.00,,,-99.99,,2013-03-29 01:42:00,
2013-03-29 01:52:00,41.0,24.0,-100.00,SSE,155,2.0,4.0,51,0.00,,,-99.99,,2013-03-29 01:52:00,
2013-03-29 02:02:00,41.0,24.0,-100.00,SE,133,1.0,4.0,50,0.00,,,-99.99,,2013-03-29 02:02:00,
2013-03-29 02:12:00,41.0,24.0,-100.00,SE,124,2.0,5.0,51,0.00,,,-99.99,,2013-03-29 02:12:00,
2013-03-29 02:22:00,40.0,24.0,-100.00,ESE,112,6.0,10.0,53,0.00,,,-99.99,,2013-03-29 02:22:00,
2013-03-29 02:32:00,39.0,25.0,-100.00,East,96,7.0,11.0,56,0.00,,,-99.99,,2013-03-29 02:32:00,
2013-03-29 02:42:00,39.0,25.0,-100.00,East,97,9.0,13.0,57,0.00,,,-99.99,,2013-03-29 02:42:00,
2013-03-29 02:52:00,39.0,25.0,-100.00,East,92,9.0,11.0,56,0.00,,,-99.99,,2013-03-29 02:52:00,
2013-03-29 03:02:00,40.0,24.0,-100.00,East,100,9.0,12.0,52,0.00,,,-99.99,,2013-03-29 03:02:00,
2013-03-29 03:12:00,40.0,24.0,-100.00,ESE,106,9.0,12.0,52,0.00,,,-99.99,,2013-03-29 03:12:00,
2013-03-29 03:22:00,39.0,24.0,-100.00,East,95,10.0,13.0,54,0.00,,,-99.99,,2013-03-29 03:22:00,
2013-03-29 03:32:00,39.0,24.0,-100.00,East,88,9.0,12.0,54,0.00,,,-99.99,,2013-03-29 03:32:00,
2013-03-29 03:42:00,39.0,24.0,-100.00,East,92,9.0,12.0,54,0.00,,,-99.99,,2013-03-29 03:42:00,
2013-03-29 03:52:00,40.0,23.0,-100.00,ESE,103,12.0,17.0,50,0.00,,,-99.99,,2013-03-29 03:52:00,
2013-03-29 04:03:00,40.0,24.0,-100.00,ESE,104,12.0,17.0,52,0.00,,,-99.99,,2013-03-29 04:03:00,
2013-03-29 04:12:00,40.0,24.0,-100.00,ESE,102,12.0,16.0,52,0.00,,,-99.99,,2013-03-29 04:12:00,
2013-03-29 04:22:00,40.0,23.0,-100.00,ESE,106,12.0,16.0,51,0.00,,,-99.99,,2013-03-29 04:22:00,
2013-03-29 04:33:00,39.0,23.0,-100.00,East,100,11.0,14.0,52,0.00,,,-99.99,,2013-03-29 04:33:00,
2013-03-29 04:42:00,39.0,24.0,-100.00,ESE,102,9.0,13.0,54,0.00,,,-99.99,,2013-03-29 04:42:00,
2013-03-29 04:52:00,40.0,23.0,-100.00,East,100,9.0,14.0,51,0.00,,,-99.99,,2013-03-29 04:52:00,
2013-03-29 05:02:00,39.0,24.0,-100.00,East,99,10.0,14.0,55,0.00,,,-99.99,,2013-03-29 05:02:00,
2013-03-29 05:12:00,39.0,24.0,-100.00,East,95,10.0,14.0,54,0.00,,,-99.99,,2013-03-29 05:12:00,
2013-03-29 05:23:00,39.0,24.0,-100.00,East,95,11.0,14.0,54,0.00,,,-99.99,,2013-03-29 05:23:00,
2013-03-29 05:32:00,39.0,24.0,-100.00,East,93,11.0,14.0,56,0.00,,,-99.99,,2013-03-29 05:32:00,
2013-03-29 05:43:00,38.0,24.0,-100.00,East,96,10.0,13.0,57,0.00,,,-99.99,,2013-03-29 05:43:00,
2013-03-29 05:52:00,38.0,25.0,-100.00,East,100,9.0,12.0,58,0.00,,,-99.99,,2013-03-29 05:52:00,
2013-03-29 06:02:00,38.0,25.0,-100.00,ESE,120,4.0,10.0,59,0.00,,,-99.99,,2013-03-29 06:02:00,
2013-03-29 06:12:00,38.0,25.0,-100.00,SSE,157,1.0,4.0,60,0.00,,,-99.99,,2013-03-29 06:12:00,
2013-03-29 06:23:00,38.0,25.0,-100.00,SSE,162,1.0,4.0,58,0.00,,,-99.99,,2013-03-29 06:23:00,
2013-03-29 06:32:00,38.0,26.0,-100.00,SSE,150,2.0,6.0,60,0.00,,,-99.99,,2013-03-29 06:32:00,
2013-03-29 06:42:00,37.0,26.0,-100.00,SSE,150,2.0,6.0,63,0.00,,,-99.99,,2013-03-29 06:42:00,
2013-03-29 06:52:00,37.0,26.0,-100.00,SSE,147,3.0,7.0,64,0.00,,,-99.99,,2013-03-29 06:52:00,
2013-03-29 07:02:00,36.0,26.0,-100.00,SSE,151,5.0,9.0,64,0.00,,,-99.99,,2013-03-29 07:02:00,
2013-03-29 07:12:00,37.0,26.0,-100.00,SSE,148,5.0,8.0,63,0.00,,,-99.99,,2013-03-29 07:12:00,
2013-03-29 07:22:00,38.0,26.0,-100.00,SE,134,4.0,8.0,62,0.00,,,-99.99,,2013-03-29 07:22:00,
2013-03-29 07:32:00,38.0,26.0,-100.00,ENE,71,6.0,10.0,61,0.00,,,-99.99,,2013-03-29 07:32:00,
2013-03-29 07:42:00,39.0,26.0,-100.00,East,97,9.0,11.0,58,0.00,,,-99.99,,2013-03-29 07:42:00,
2013-03-29 07:52:00,38.0,25.0,-100.00,ESE,113,7.0,11.0,59,0.00,,,-99.99,,2013-03-29 07:52:00,
2013-03-29 08:02:00,38.0,25.0,-100.00,ESE,106,8.0,12.0,59,0.00,,,-99.99,,2013-03-29 08:02:00,
2013-03-29 08:12:00,38.0,25.0,-100.00,East,99,7.0,9.0,61,0.00,,,-99.99,,2013-03-29 08:12:00,
2013-03-29 08:22:00,36.0,25.0,-100.00,ESE,121,1.0,5.0,64,0.00,,,-99.99,,2013-03-29 08:22:00,
2013-03-29 08:32:00,36.0,25.0,-100.00,East,93,5.0,9.0,64,0.00,,,-99.99,,2013-03-29 08:32:00,
2013-03-29 08:42:00,36.0,25.0,-100.00,East,86,7.0,10.0,63,0.00,,,-99.99,,2013-03-29 08:42:00,
2013-03-29 08:52:00,36.0,25.0,-100.00,East,86,7.0,11.0,63,0.00,,,-99.99,,2013-03-29 08:52:00,
2013-03-29 09:02:00,35.0,25.0,-100.00,East,88,7.0,11.0,65,0.00,,,-99.99,,2013-03-29 09:02:00,
2013-03-29 09:12:00,35.0,25.0,-100.00,East,90,8.0,12.0,66,0.00,,,-99.99,,2013-03-29 09:12:00,
2013-03-29 09:22:00,35.0,25.0,-100.00,East,95,11.0,14.0,66,0.00,,,-99.99,,2013-03-29 09:22:00,
2013-03-29 09:32:00,35.0,25.0,-100.00,East,90,11.0,14.0,65,0.00,,,-99.99,,2013-03-29 09:32:00,
2013-03-29 09:42:00,35.0,25.0,-100.00,East,92,9.0,12.0,66,0.00,,,-99.99,,2013-03-29 09:42:00,
2013-03-29 09:52:00,35.0,25.0,-100.00,East,93,9.0,12.0,66,0.00,,,-99.99,,2013-03-29 09:52:00,
2013-03-29 10:02:00,36.0,25.0,-100.00,East,89,9.0,12.0,65,0.00,,,-99.99,,2013-03-29 10:02:00,
2013-03-29 10:12:00,36.0,25.0,-100.00,East,85,10.0,13.0,64,0.00,,,-99.99,,2013-03-29 10:12:00,
2013-03-29 10:22:00,36.0,25.0,-100.00,East,93,10.0,13.0,65,0.00,,,-99.99,,2013-03-29 10:22:00,
2013-03-29 10:33:00,35.0,25.0,-100.00,East,99,9.0,12.0,66,0.00,,,-99.99,,2013-03-29 10:33:00,
2013-03-29 10:42:00,35.0,25.0,-100.00,ESE,117,5.0,9.0,67,0.00,,,-99.99,,2013-03-29 10:42:00,
2013-03-29 10:52:00,34.0,25.0,-100.00,ESE,119,4.0,7.0,68,0.00,,,-99.99,,2013-03-29 10:52:00,
2013-03-29 11:03:00,34.0,25.0,-100.00,ESE,120,2.0,4.0,69,0.00,,,-99.99,,2013-03-29 11:03:00,
2013-03-29 11:23:00,34.0,25.0,-100.00,SE,137,5.0,9.0,72,0.00,,,-99.99,,2013-03-29 11:23:00,
2013-03-29 11:32:00,33.0,26.0,-100.00,SE,140,4.0,7.0,73,0.00,,,-99.99,,2013-03-29 11:32:00,
2013-03-29 11:42:00,36.0,26.0,-100.00,SE,140,7.0,11.0,69,0.00,,,-99.99,,2013-03-29 11:42:00,
2013-03-29 11:52:00,37.0,26.0,-100.00,SE,140,9.0,13.0,65,0.00,,,-99.99,,2013-03-29 11:52:00,
2013-03-29 12:02:00,36.0,27.0,-100.00,SSE,148,10.0,12.0,68,0.00,,,-99.99,,2013-03-29 12:02:00,
2013-03-29 12:12:00,36.0,27.0,-100.00,SSE,151,10.0,14.0,69,0.00,,,-99.99,,2013-03-29 12:12:00,
2013-03-29 12:22:00,36.0,29.0,-100.00,SE,131,17.0,28.0,75,0.00,,,-99.99,,2013-03-29 12:22:00,
2013-03-29 12:32:00,36.0,30.0,-100.00,SE,127,19.0,27.0,79,0.00,,,-99.99,,2013-03-29 12:32:00,
2013-03-29 12:42:00,36.0,30.0,-100.00,East,100,14.0,22.0,79,0.00,,,-99.99,,2013-03-29 12:42:00,
2013-03-29 12:52:00,36.0,30.0,-100.00,ESE,117,16.0,22.0,78,0.00,,,-99.99,,2013-03-29 12:52:00,
2013-03-29 13:02:00,35.0,29.0,-100.00,ESE,114,14.0,19.0,78,0.00,,,-99.99,,2013-03-29 13:02:00,
2013-03-29 13:12:00,35.0,29.0,-100.00,ESE,114,12.0,17.0,78,0.00,,,-99.99,,2013-03-29 13:12:00,
2013-03-29 13:22:00,35.0,29.0,-100.00,ESE,119,12.0,17.0,77,0.00,,,-99.99,,2013-03-29 13:22:00,
2013-03-29 13:32:00,36.0,29.0,-100.00,SE,126,9.0,12.0,75,0.00,,,-99.99,,2013-03-29 13:32:00,
2013-03-29 13:42:00,37.0,28.0,-100.00,SE,127,10.0,14.0,72,0.00,,,-99.99,,2013-03-29 13:42:00,
2013-03-29 13:52:00,36.0,28.0,-100.00,ESE,123,9.0,14.0,72,0.00,,,-99.99,,2013-03-29 13:52:00,
2013-03-29 14:02:00,36.0,29.0,-100.00,SSE,147,6.0,10.0,73,0.00,,,-99.99,,2013-03-29 14:02:00,
2013-03-29 14:12:00,38.0,29.0,-100.00,SSE,148,7.0,12.0,70,0.00,,,-99.99,,2013-03-29 14:12:00,
2013-03-29 14:22:00,39.0,28.0,-100.00,SSE,147,12.0,15.0,64,0.00,,,-99.99,,2013-03-29 14:22:00,
2013-03-29 14:32:00,39.0,28.0,-100.00,SSE,150,12.0,16.0,65,0.00,,,-99.99,,2013-03-29 14:32:00,
2013-03-29 14:42:00,38.0,28.0,-100.00,SSE,151,12.0,16.0,65,0.00,,,-99.99,,2013-03-29 14:42:00,
2013-03-29 14:52:00,39.0,28.0,-100.00,SSE,150,13.0,17.0,62,-99.99,,,-99.99,,2013-03-29 14:52:00,
2013-03-29 15:02:00,39.0,28.0,-100.00,SE,144,10.0,14.0,63,0.00,,,-99.99,,2013-03-29 15:02:00,
2013-03-29 15:12:00,40.0,28.0,-100.00,SE,144,9.0,12.0,63,0.00,,,-99.99,,2013-03-29 15:12:00,
2013-03-29 15:22:00,41.0,29.0,-100.00,SSE,160,11.0,14.0,60,0.00,,,-99.99,,2013-03-29 15:22:00,
2013-03-29 15:33:00,42.0,29.0,-100.00,SSE,160,15.0,19.0,59,0.00,,,-99.99,,2013-03-29 15:33:00,
2013-03-29 15:42:00,43.0,29.0,-100.00,SSE,160,16.0,19.0,58,0.00,,,-99.99,,2013-03-29 15:42:00,
2013-03-29 15:52:00,44.0,29.0,-100.00,SSE,168,17.0,22.0,55,0.00,,,-99.99,,2013-03-29 15:52:00,
2013-03-29 16:03:00,44.0,28.0,-100.00,South,169,17.0,21.0,54,0.00,,,-99.99,,2013-03-29 16:03:00,
2013-03-29 16:12:00,44.0,29.0,-100.00,South,171,17.0,23.0,55,0.00,,,-99.99,,2013-03-29 16:12:00,
2013-03-29 16:23:00,42.0,28.0,-100.00,South,174,19.0,23.0,57,0.00,,,-99.99,,2013-03-29 16:23:00,
2013-03-29 16:32:00,43.0,28.0,-100.00,South,174,21.0,27.0,55,0.00,,,-99.99,,2013-03-29 16:32:00,
2013-03-29 16:42:00,43.0,28.0,-100.00,South,174,23.0,29.0,55,0.00,,,-99.99,,2013-03-29 16:42:00,
2013-03-29 16:52:00,44.0,29.0,-100.00,South,171,24.0,32.0,54,0.00,,,-99.99,,2013-03-29 16:52:00,
2013-03-29 17:03:00,43.0,28.0,-100.00,South,172,25.0,31.0,54,0.00,,,-99.99,,2013-03-29 17:03:00,
2013-03-29 17:12:00,43.0,28.0,-100.00,South,176,26.0,31.0,54,0.00,,,-99.99,,2013-03-29 17:12:00,
2013-03-29 17:22:00,43.0,28.0,-100.00,South,174,24.0,32.0,55,0.00,,,-99.99,,2013-03-29 17:22:00,
2013-03-29 17:33:00,44.0,28.0,-100.00,South,175,23.0,29.0,54,0.00,,,-99.99,,2013-03-29 17:33:00,
2013-03-29 17:42:00,45.0,28.0,-100.00,South,172,23.0,29.0,52,0.00,,,-99.99,,2013-03-29 17:42:00,
2013-03-29 17:52:00,46.0,29.0,-100.00,South,176,23.0,27.0,50,0.00,,,-99.99,,2013-03-29 17:52:00,
2013-03-29 18:02:00,47.0,28.0,-100.00,South,178,21.0,29.0,47,0.00,,,-99.99,,2013-03-29 18:02:00,
2013-03-29 18:12:00,47.0,28.0,-100.00,South,176,21.0,29.0,47,0.00,,,-99.99,,2013-03-29 18:12:00,
2013-03-29 18:22:00,45.0,27.0,-100.00,South,182,18.0,25.0,49,0.00,,,-99.99,,2013-03-29 18:22:00,
2013-03-29 18:32:00,45.0,29.0,-100.00,SSW,198,17.0,22.0,53,0.01,,,-99.99,,2013-03-29 18:32:00,
2013-03-29 18:42:00,46.0,28.0,-100.00,SSW,195,16.0,21.0,49,0.00,,,-99.99,,2013-03-29 18:42:00,
2013-03-29 18:52:00,46.0,28.0,-100.00,SSW,199,19.0,26.0,50,0.00,,,-99.99,,2013-03-29 18:52:00,
2013-03-29 19:02:00,48.0,27.0,-100.00,SSW,193,17.0,24.0,44,0.00,,,-99.99,,2013-03-29 19:02:00,
2013-03-29 19:12:00,48.0,27.0,-100.00,South,178,22.0,30.0,44,0.00,,,-99.99,,2013-03-29 19:12:00,
2013-03-29 19:22:00,48.0,28.0,-100.00,South,175,24.0,30.0,45,0.00,,,-99.99,,2013-03-29 19:22:00,
2013-03-29 19:32:00,49.0,28.0,-100.00,South,169,27.0,34.0,44,0.00,,,-99.99,,2013-03-29 19:32:00,
2013-03-29 19:42:00,49.0,28.0,-100.00,South,172,26.0,34.0,43,0.00,,,-99.99,,2013-03-29 19:42:00,
2013-03-29 19:52:00,48.0,27.0,-100.00,South,172,26.0,33.0,44,0.00,,,-99.99,,2013-03-29 19:52:00,
2013-03-29 20:02:00,45.0,27.0,-100.00,South,189,22.0,34.0,48,-99.99,,,-99.99,,2013-03-29 20:02:00,
2013-03-29 20:12:00,46.0,28.0,-100.00,South,189,20.0,26.0,49,0.00,,,-99.99,,2013-03-29 20:12:00,
2013-03-29 20:32:00,39.0,31.0,-100.00,SSW,209,21.0,32.0,74,0.01,,,-99.99,,2013-03-29 20:32:00,
2013-03-29 20:42:00,38.0,33.0,-100.00,SSW,206,17.0,28.0,82,0.01,,,-99.99,,2013-03-29 20:42:00,
2013-03-29 20:52:00,40.0,35.0,-100.00,South,182,7.0,14.0,84,0.00,,,-99.99,,2013-03-29 20:52:00,
2013-03-29 21:02:00,42.0,35.0,-100.00,South,171,11.0,17.0,76,0.00,,,-99.99,,2013-03-29 21:02:00,
2013-03-29 21:12:00,45.0,34.0,-100.00,South,179,16.0,22.0,65,0.00,,,-99.99,,2013-03-29 21:12:00,
2013-03-29 21:22:00,47.0,29.0,-100.00,South,188,20.0,24.0,49,0.00,,,-99.99,,2013-03-29 21:22:00,
2013-03-29 21:32:00,46.0,29.0,-100.00,South,182,17.0,23.0,51,0.00,,,-99.99,,2013-03-29 21:32:00,
2013-03-29 21:42:00,46.0,29.0,-100.00,South,184,16.0,22.0,52,0.00,,,-99.99,,2013-03-29 21:42:00,
2013-03-29 21:53:00,47.0,28.0,-100.00,SSW,195,19.0,26.0,47,0.00,,,-99.99,,2013-03-29 21:53:00,
2013-03-29 22:03:00,-999.0,-99.9,-100.00,South,179,18.0,23.0,-999,-99.99,,,-99.99,,2013-03-29 22:03:00,
2013-03-29 22:12:00,47.0,30.0,-100.00,South,172,18.0,24.0,51,0.00,,,-99.99,,2013-03-29 22:12:00,
2013-03-29 22:22:00,47.0,29.0,-100.00,SSE,152,21.0,27.0,49,0.00,,,-99.99,,2013-03-29 22:22:00,
2013-03-29 22:33:00,48.0,27.0,-100.00,SSE,155,19.0,24.0,44,0.00,,,-99.99,,2013-03-29 22:33:00,
2013-03-29 22:42:00,48.0,24.0,-100.00,South,175,23.0,30.0,40,0.00,,,-99.99,,2013-03-29 22:42:00,
2013-03-29 22:52:00,47.0,24.0,-100.00,South,174,24.0,32.0,40,0.00,,,-99.99,,2013-03-29 22:52:00,
2013-03-29 23:02:00,44.0,25.0,-100.00,South,171,31.0,44.0,46,0.00,,,-99.99,,2013-03-29 23:02:00,
2013-03-29 23:12:00,44.0,29.0,-100.00,South,174,29.0,40.0,55,0.00,,,-99.99,,2013-03-29 23:12:00,
2013-03-29 23:22:00,47.0,26.0,-100.00,South,181,13.0,21.0,44,0.00,,,-99.99,,2013-03-29 23:22:00,
2013-03-29 23:32:00,49.0,25.0,-100.00,South,172,16.0,26.0,39,0.00,,,-99.99,,2013-03-29 23:32:00,
2013-03-29 23:42:00,48.0,24.0,-100.00,South,179,18.0,26.0,40,0.00,,,-99.99,,2013-03-29 23:42:00,
2013-03-29 23:52:00,45.0,24.0,-100.00,South,188,27.0,42.0,43,-99.99,,,-99.99,,2013-03-29 23:52:00,